createdAt,value
2017-05-31T00:00:34.115Z,1007.36
2017-05-31T00:01:35.565Z,1007.37
2017-05-31T00:02:37.000Z,1007.37
2017-05-31T00:03:38.436Z,1007.38
2017-05-31T00:04:39.869Z,1007.36
2017-05-31T00:05:41.320Z,1007.39
2017-05-31T00:06:42.756Z,1007.42
2017-05-31T00:07:44.252Z,1007.42
2017-05-31T00:08:45.704Z,1007.45
2017-05-31T00:09:47.137Z,1007.45
2017-05-31T00:10:48.584Z,1007.44
2017-05-31T00:11:50.016Z,1007.49
2017-05-31T00:12:51.504Z,1007.45
2017-05-31T00:13:52.948Z,1007.46
2017-05-31T00:14:54.386Z,1007.45
2017-05-31T00:15:55.862Z,1007.50
2017-05-31T00:16:57.293Z,1007.50
2017-05-31T00:17:58.760Z,1007.51
2017-05-31T00:19:00.175Z,1007.58
2017-05-31T00:20:01.637Z,1007.54
2017-05-31T00:21:03.077Z,1007.53
2017-05-31T00:22:04.525Z,1007.54
2017-05-31T00:23:05.964Z,1007.52
2017-05-31T00:24:07.407Z,1007.50
2017-05-31T00:25:08.842Z,1007.51
2017-05-31T00:26:10.270Z,1007.54
2017-05-31T00:27:11.704Z,1007.56
2017-05-31T00:28:13.144Z,1007.56
2017-05-31T00:29:14.583Z,1007.61
2017-05-31T00:30:16.020Z,1007.60
2017-05-31T00:31:17.453Z,1007.59
2017-05-31T00:32:18.888Z,1007.56
2017-05-31T00:33:20.329Z,1007.55
2017-05-31T00:34:21.764Z,1007.57
2017-05-31T00:35:23.221Z,1007.59
2017-05-31T00:36:24.649Z,1007.56
2017-05-31T00:37:26.092Z,1007.61
2017-05-31T00:38:27.532Z,1007.62
2017-05-31T00:39:28.968Z,1007.63
2017-05-31T00:40:30.404Z,1007.67
2017-05-31T00:41:31.854Z,1007.68
2017-05-31T00:42:33.356Z,1007.71
2017-05-31T00:43:34.793Z,1007.72
2017-05-31T00:44:36.231Z,1007.72
2017-05-31T00:45:37.666Z,1007.71
2017-05-31T00:46:39.105Z,1007.76
2017-05-31T00:47:40.579Z,1007.78
2017-05-31T00:48:42.015Z,1007.74
2017-05-31T00:49:43.447Z,1007.78
2017-05-31T00:50:44.893Z,1007.79
2017-05-31T00:51:46.332Z,1007.80
2017-05-31T00:52:47.766Z,1007.81
2017-05-31T00:53:49.202Z,1007.83
2017-05-31T00:54:50.686Z,1007.81
2017-05-31T00:55:52.115Z,1007.83
2017-05-31T00:56:53.552Z,1007.85
2017-05-31T00:57:55.001Z,1007.87
2017-05-31T00:58:56.444Z,1007.89
2017-05-31T00:59:57.874Z,1007.86
2017-05-31T01:00:59.316Z,1007.89
2017-05-31T01:02:00.755Z,1007.90
2017-05-31T01:03:02.198Z,1007.88
2017-05-31T01:04:03.640Z,1007.89
2017-05-31T01:05:05.127Z,1007.90
2017-05-31T01:06:06.582Z,1007.87
2017-05-31T01:07:08.011Z,1007.94
2017-05-31T01:08:09.460Z,1007.94
2017-05-31T01:09:10.902Z,1007.92
2017-05-31T01:10:12.330Z,1007.96
2017-05-31T01:11:13.772Z,1007.97
2017-05-31T01:12:15.217Z,1007.99
2017-05-31T01:13:16.661Z,1007.97
2017-05-31T01:14:18.095Z,1007.99
2017-05-31T01:15:19.528Z,1007.96
2017-05-31T01:16:20.961Z,1007.98
2017-05-31T01:17:22.419Z,1007.95
2017-05-31T01:18:24.431Z,1007.95
2017-05-31T01:19:25.868Z,1007.95
2017-05-31T01:20:27.307Z,1007.94
2017-05-31T01:21:28.745Z,1007.95
2017-05-31T01:22:30.189Z,1007.91
2017-05-31T01:23:31.630Z,1007.91
2017-05-31T01:24:33.067Z,1007.91
2017-05-31T01:25:34.503Z,1007.89
2017-05-31T01:26:35.942Z,1007.94
2017-05-31T01:27:37.377Z,1007.95
2017-05-31T01:28:38.818Z,1007.96
2017-05-31T01:29:40.264Z,1007.96
2017-05-31T01:30:41.698Z,1007.93
2017-05-31T01:31:43.130Z,1007.98
2017-05-31T01:32:44.570Z,1007.96
2017-05-31T01:33:46.009Z,1007.96
2017-05-31T01:34:47.448Z,1007.97
2017-05-31T01:35:48.888Z,1007.93
2017-05-31T01:36:50.328Z,1007.99
2017-05-31T01:37:51.767Z,1008.02
2017-05-31T01:38:53.204Z,1008.01
2017-05-31T01:39:54.642Z,1008.06
2017-05-31T01:40:56.196Z,1008.08
2017-05-31T01:41:57.637Z,1008.06
2017-05-31T01:42:59.083Z,1008.13
2017-05-31T01:44:00.516Z,1008.16
2017-05-31T01:45:01.966Z,1008.13
2017-05-31T01:46:03.404Z,1008.13
2017-05-31T01:47:04.848Z,1008.14
2017-05-31T01:48:06.284Z,1008.09
2017-05-31T01:49:07.729Z,1008.07
2017-05-31T01:50:09.181Z,1008.07
2017-05-31T01:51:10.621Z,1008.08
2017-05-31T01:52:12.079Z,1008.10
2017-05-31T01:53:13.515Z,1008.10
2017-05-31T01:54:14.956Z,1008.08
2017-05-31T01:55:16.406Z,1008.09
2017-05-31T01:56:17.843Z,1008.07
2017-05-31T01:57:19.278Z,1008.09
2017-05-31T01:58:20.755Z,1008.13
2017-05-31T01:59:22.194Z,1008.13
2017-05-31T02:00:23.631Z,1008.10
2017-05-31T02:01:25.100Z,1008.14
2017-05-31T02:02:26.541Z,1008.14
2017-05-31T02:03:27.980Z,1008.12
2017-05-31T02:04:29.405Z,1008.11
2017-05-31T02:05:30.843Z,1008.08
2017-05-31T02:06:32.286Z,1008.07
2017-05-31T02:07:33.723Z,1008.05
2017-05-31T02:08:35.161Z,1008.07
2017-05-31T02:09:36.603Z,1008.06
2017-05-31T02:10:38.039Z,1008.05
2017-05-31T02:11:39.472Z,1008.05
2017-05-31T02:12:40.907Z,1008.05
2017-05-31T02:13:42.346Z,1008.03
2017-05-31T02:14:43.778Z,1008.00
2017-05-31T02:15:45.217Z,1008.02
2017-05-31T02:16:46.651Z,1008.00
2017-05-31T02:17:48.097Z,1008.02
2017-05-31T02:18:49.527Z,1007.98
2017-05-31T02:19:50.967Z,1007.93
2017-05-31T02:20:52.401Z,1007.94
2017-05-31T02:21:53.833Z,1007.91
2017-05-31T02:22:55.272Z,1007.89
2017-05-31T02:23:56.708Z,1007.92
2017-05-31T02:24:58.165Z,1007.94
2017-05-31T02:25:59.599Z,1007.96
2017-05-31T02:27:01.037Z,1007.94
2017-05-31T02:28:02.471Z,1007.94
2017-05-31T02:29:03.909Z,1007.98
2017-05-31T02:30:05.343Z,1007.98
2017-05-31T02:31:06.781Z,1008.00
2017-05-31T02:32:08.217Z,1007.99
2017-05-31T02:33:09.661Z,1008.02
2017-05-31T02:34:11.102Z,1007.97
2017-05-31T02:35:12.539Z,1008.00
2017-05-31T02:36:13.981Z,1008.00
2017-05-31T02:37:15.413Z,1008.02
2017-05-31T02:38:16.853Z,1008.01
2017-05-31T02:39:18.295Z,1008.06
2017-05-31T02:40:19.739Z,1008.05
2017-05-31T02:41:21.173Z,1008.12
2017-05-31T02:42:22.610Z,1008.10
2017-05-31T02:43:24.046Z,1008.10
2017-05-31T02:44:25.494Z,1008.10
2017-05-31T02:45:26.930Z,1008.08
2017-05-31T02:46:28.369Z,1008.12
2017-05-31T02:47:29.805Z,1008.09
2017-05-31T02:48:31.239Z,1008.09
2017-05-31T02:49:32.675Z,1008.08
2017-05-31T02:50:34.115Z,1008.06
2017-05-31T02:51:35.549Z,1008.09
2017-05-31T02:52:36.980Z,1008.10
2017-05-31T02:53:38.425Z,1008.12
2017-05-31T02:54:39.861Z,1008.15
2017-05-31T02:55:41.299Z,1008.16
2017-05-31T02:56:42.740Z,1008.14
2017-05-31T02:57:44.176Z,1008.17
2017-05-31T02:58:45.615Z,1008.23
2017-05-31T02:59:47.055Z,1008.20
2017-05-31T03:00:48.497Z,1008.20
2017-05-31T03:01:49.928Z,1008.18
2017-05-31T03:02:51.363Z,1008.20
2017-05-31T03:03:52.810Z,1008.19
2017-05-31T03:04:54.237Z,1008.15
2017-05-31T03:05:55.677Z,1008.19
2017-05-31T03:06:57.116Z,1008.17
2017-05-31T03:07:58.565Z,1008.21
2017-05-31T03:08:59.996Z,1008.19
2017-05-31T03:10:01.429Z,1008.18
2017-05-31T03:11:02.865Z,1008.19
2017-05-31T03:12:04.302Z,1008.21
2017-05-31T03:13:05.752Z,1008.19
2017-05-31T03:14:07.186Z,1008.23
2017-05-31T03:15:08.624Z,1008.22
2017-05-31T03:16:10.059Z,1008.27
2017-05-31T03:17:11.493Z,1008.26
2017-05-31T03:18:12.933Z,1008.26
2017-05-31T03:19:14.367Z,1008.27
2017-05-31T03:20:15.807Z,1008.29
2017-05-31T03:21:17.261Z,1008.26
2017-05-31T03:22:18.705Z,1008.33
2017-05-31T03:23:20.139Z,1008.28
2017-05-31T03:24:21.569Z,1008.33
2017-05-31T03:25:23.004Z,1008.33
2017-05-31T03:26:24.444Z,1008.36
2017-05-31T03:27:25.874Z,1008.34
2017-05-31T03:28:27.307Z,1008.34
2017-05-31T03:29:28.745Z,1008.35
2017-05-31T03:30:30.184Z,1008.37
2017-05-31T03:31:31.613Z,1008.39
2017-05-31T03:32:33.044Z,1008.45
2017-05-31T03:33:34.482Z,1008.41
2017-05-31T03:34:35.920Z,1008.41
2017-05-31T03:35:37.358Z,1008.37
2017-05-31T03:36:38.800Z,1008.39
2017-05-31T03:37:40.233Z,1008.43
2017-05-31T03:38:41.664Z,1008.43
2017-05-31T03:39:43.105Z,1008.42
2017-05-31T03:40:44.546Z,1008.41
2017-05-31T03:41:45.975Z,1008.47
2017-05-31T03:42:47.413Z,1008.46
2017-05-31T03:43:48.856Z,1008.48
2017-05-31T03:44:50.305Z,1008.50
2017-05-31T03:45:51.741Z,1008.48
2017-05-31T03:46:53.172Z,1008.49
2017-05-31T03:47:54.647Z,1008.50
2017-05-31T03:48:56.082Z,1008.50
2017-05-31T03:49:57.520Z,1008.49
2017-05-31T03:50:58.956Z,1008.56
2017-05-31T03:52:00.396Z,1008.52
2017-05-31T03:53:01.830Z,1008.51
2017-05-31T03:54:03.269Z,1008.55
2017-05-31T03:55:04.709Z,1008.56
2017-05-31T03:56:06.146Z,1008.57
2017-05-31T03:57:07.587Z,1008.59
2017-05-31T03:58:09.024Z,1008.60
2017-05-31T03:59:10.469Z,1008.62
2017-05-31T04:00:11.914Z,1008.62
2017-05-31T04:01:13.347Z,1008.67
2017-05-31T04:02:14.781Z,1008.65
2017-05-31T04:03:16.696Z,1008.70
2017-05-31T04:04:18.136Z,1008.72
2017-05-31T04:05:19.570Z,1008.68
2017-05-31T04:06:21.005Z,1008.69
2017-05-31T04:07:22.442Z,1008.74
2017-05-31T04:08:23.892Z,1008.73
2017-05-31T04:09:25.322Z,1008.75
2017-05-31T04:10:26.763Z,1008.77
2017-05-31T04:11:28.197Z,1008.77
2017-05-31T04:12:29.637Z,1008.75
2017-05-31T04:13:31.066Z,1008.75
2017-05-31T04:14:32.499Z,1008.80
2017-05-31T04:15:33.931Z,1008.84
2017-05-31T04:16:35.362Z,1008.87
2017-05-31T04:17:36.796Z,1008.91
2017-05-31T04:18:38.234Z,1008.94
2017-05-31T04:19:39.684Z,1008.95
2017-05-31T04:20:41.119Z,1008.98
2017-05-31T04:21:42.561Z,1008.99
2017-05-31T04:22:44.009Z,1008.99
2017-05-31T04:23:45.446Z,1009.00
2017-05-31T04:24:46.880Z,1008.99
2017-05-31T04:25:48.319Z,1009.00
2017-05-31T04:26:49.757Z,1009.01
2017-05-31T04:27:51.199Z,1008.99
2017-05-31T04:28:52.640Z,1009.08
2017-05-31T04:29:54.080Z,1009.05
2017-05-31T04:30:55.555Z,1009.07
2017-05-31T04:31:56.992Z,1009.05
2017-05-31T04:32:58.426Z,1009.04
2017-05-31T04:33:59.868Z,1009.03
2017-05-31T04:35:01.301Z,1009.09
2017-05-31T04:36:02.738Z,1009.10
2017-05-31T04:37:04.175Z,1009.10
2017-05-31T04:38:05.619Z,1009.11
2017-05-31T04:39:07.052Z,1009.15
2017-05-31T04:40:08.495Z,1009.18
2017-05-31T04:41:09.930Z,1009.17
2017-05-31T04:42:11.370Z,1009.20
2017-05-31T04:43:12.807Z,1009.19
2017-05-31T04:44:14.252Z,1009.20
2017-05-31T04:45:15.690Z,1009.23
2017-05-31T04:46:17.124Z,1009.26
2017-05-31T04:47:18.562Z,1009.26
2017-05-31T04:48:20.001Z,1009.27
2017-05-31T04:49:21.440Z,1009.27
2017-05-31T04:50:22.883Z,1009.28
2017-05-31T04:51:24.319Z,1009.28
2017-05-31T04:52:25.754Z,1009.27
2017-05-31T04:53:27.196Z,1009.32
2017-05-31T04:54:28.633Z,1009.30
2017-05-31T04:55:30.075Z,1009.28
2017-05-31T04:56:31.506Z,1009.32
2017-05-31T04:57:32.942Z,1009.30
2017-05-31T04:58:34.378Z,1009.30
2017-05-31T04:59:35.817Z,1009.27
2017-05-31T05:00:37.254Z,1009.27
2017-05-31T05:01:38.699Z,1009.28
2017-05-31T05:02:40.091Z,1009.28
2017-05-31T05:03:41.531Z,1009.30
2017-05-31T05:04:42.965Z,1009.33
2017-05-31T05:05:44.406Z,1009.36
2017-05-31T05:06:45.849Z,1009.32
2017-05-31T05:07:47.295Z,1009.37
2017-05-31T05:08:48.729Z,1009.38
2017-05-31T05:09:50.171Z,1009.39
2017-05-31T05:10:51.623Z,1009.34
2017-05-31T05:11:53.072Z,1009.33
2017-05-31T05:12:54.505Z,1009.34
2017-05-31T05:13:55.951Z,1009.32
2017-05-31T05:14:57.389Z,1009.35
2017-05-31T05:15:58.828Z,1009.36
2017-05-31T05:17:00.275Z,1009.36
2017-05-31T05:18:01.709Z,1009.37
2017-05-31T05:19:03.138Z,1009.42
2017-05-31T05:20:04.597Z,1009.40
2017-05-31T05:21:06.058Z,1009.36
2017-05-31T05:22:07.500Z,1009.37
2017-05-31T05:23:08.938Z,1009.38
2017-05-31T05:24:10.383Z,1009.37
2017-05-31T05:25:11.826Z,1009.36
2017-05-31T05:26:13.267Z,1009.39
2017-05-31T05:27:14.698Z,1009.40
2017-05-31T05:28:16.138Z,1009.43
2017-05-31T05:29:17.577Z,1009.41
2017-05-31T05:30:19.014Z,1009.44
2017-05-31T05:31:20.453Z,1009.43
2017-05-31T05:32:21.886Z,1009.48
2017-05-31T05:33:23.320Z,1009.47
2017-05-31T05:34:24.763Z,1009.44
2017-05-31T05:35:26.206Z,1009.42
2017-05-31T05:36:27.646Z,1009.49
2017-05-31T05:37:29.082Z,1009.50
2017-05-31T05:38:30.528Z,1009.46
2017-05-31T05:39:31.981Z,1009.49
2017-05-31T05:40:33.426Z,1009.54
2017-05-31T05:41:34.860Z,1009.52
2017-05-31T05:42:36.299Z,1009.56
2017-05-31T05:43:37.735Z,1009.54
2017-05-31T05:44:39.174Z,1009.54
2017-05-31T05:45:40.702Z,1009.64
2017-05-31T05:46:42.141Z,1009.59
2017-05-31T05:47:43.571Z,1009.64
2017-05-31T05:48:45.005Z,1009.67
2017-05-31T05:49:46.501Z,1009.69
2017-05-31T05:50:47.885Z,1009.66
2017-05-31T05:51:49.326Z,1009.68
2017-05-31T05:52:50.767Z,1009.70
2017-05-31T05:53:52.208Z,1009.69
2017-05-31T05:54:53.645Z,1009.70
2017-05-31T05:55:55.080Z,1009.67
2017-05-31T05:56:56.531Z,1009.71
2017-05-31T05:57:57.967Z,1009.69
2017-05-31T05:58:59.407Z,1009.69
2017-05-31T06:00:00.836Z,1009.72
2017-05-31T06:01:02.339Z,1009.72
2017-05-31T06:02:03.764Z,1009.73
2017-05-31T06:03:05.210Z,1009.75
2017-05-31T06:04:06.699Z,1009.71
2017-05-31T06:05:08.135Z,1009.78
2017-05-31T06:06:09.586Z,1009.81
2017-05-31T06:07:11.022Z,1009.84
2017-05-31T06:08:12.456Z,1009.84
2017-05-31T06:09:13.905Z,1009.86
2017-05-31T06:10:15.341Z,1009.89
2017-05-31T06:11:16.781Z,1009.87
2017-05-31T06:12:18.276Z,1009.87
2017-05-31T06:13:19.710Z,1009.85
2017-05-31T06:14:21.149Z,1009.84
2017-05-31T06:15:22.589Z,1009.82
2017-05-31T06:16:24.068Z,1009.84
2017-05-31T06:17:25.504Z,1009.85
2017-05-31T06:18:26.938Z,1009.89
2017-05-31T06:19:28.381Z,1009.93
2017-05-31T06:20:29.823Z,1009.89
2017-05-31T06:21:31.261Z,1009.96
2017-05-31T06:22:32.702Z,1009.93
2017-05-31T06:23:34.137Z,1010.00
2017-05-31T06:24:35.577Z,1009.99
2017-05-31T06:25:37.024Z,1009.99
2017-05-31T06:26:38.470Z,1009.98
2017-05-31T06:27:39.909Z,1009.98
2017-05-31T06:28:41.372Z,1009.96
2017-05-31T06:29:42.863Z,1010.00
2017-05-31T06:30:44.302Z,1009.94
2017-05-31T06:31:45.761Z,1010.01
2017-05-31T06:32:47.187Z,1009.99
2017-05-31T06:33:48.628Z,1010.05
2017-05-31T06:34:50.061Z,1010.07
2017-05-31T06:35:51.504Z,1010.05
2017-05-31T06:36:52.932Z,1010.12
2017-05-31T06:37:54.374Z,1010.14
2017-05-31T06:38:55.829Z,1010.13
2017-05-31T06:39:57.251Z,1010.17
2017-05-31T06:40:58.684Z,1010.17
2017-05-31T06:42:00.118Z,1010.13
2017-05-31T06:43:01.547Z,1010.10
2017-05-31T06:44:02.996Z,1010.16
2017-05-31T06:45:04.432Z,1010.16
2017-05-31T06:46:05.879Z,1010.16
2017-05-31T06:47:07.318Z,1010.19
2017-05-31T06:48:08.755Z,1010.19
2017-05-31T06:49:10.199Z,1010.17
2017-05-31T06:50:11.639Z,1010.19
2017-05-31T06:51:13.078Z,1010.20
2017-05-31T06:52:14.516Z,1010.19
2017-05-31T06:53:15.957Z,1010.22
2017-05-31T06:54:17.417Z,1010.19
2017-05-31T06:55:18.853Z,1010.21
2017-05-31T06:56:20.292Z,1010.19
2017-05-31T06:57:21.821Z,1010.24
2017-05-31T06:58:23.195Z,1010.25
2017-05-31T06:59:24.647Z,1010.25
2017-05-31T07:00:26.110Z,1010.23
2017-05-31T07:01:27.525Z,1010.25
2017-05-31T07:02:28.970Z,1010.26
2017-05-31T07:03:30.418Z,1010.26
2017-05-31T07:04:31.859Z,1010.27
2017-05-31T07:05:33.297Z,1010.31
2017-05-31T07:06:34.738Z,1010.31
2017-05-31T07:07:36.179Z,1010.30
2017-05-31T07:08:37.617Z,1010.29
2017-05-31T07:09:39.067Z,1010.30
2017-05-31T07:10:40.508Z,1010.29
2017-05-31T07:11:41.951Z,1010.31
2017-05-31T07:12:43.391Z,1010.29
2017-05-31T07:13:44.836Z,1010.32
2017-05-31T07:14:46.270Z,1010.40
2017-05-31T07:15:47.716Z,1010.35
2017-05-31T07:16:49.166Z,1010.39
2017-05-31T07:17:50.603Z,1010.38
2017-05-31T07:18:52.102Z,1010.38
2017-05-31T07:19:53.555Z,1010.40
2017-05-31T07:20:55.001Z,1010.41
2017-05-31T07:21:56.431Z,1010.39
2017-05-31T07:22:57.875Z,1010.34
2017-05-31T07:23:59.307Z,1010.36
2017-05-31T07:25:00.743Z,1010.33
2017-05-31T07:26:02.184Z,1010.36
2017-05-31T07:27:03.634Z,1010.43
2017-05-31T07:28:05.077Z,1010.40
2017-05-31T07:29:06.512Z,1010.41
2017-05-31T07:30:07.955Z,1010.38
2017-05-31T07:31:09.393Z,1010.41
2017-05-31T07:32:10.828Z,1010.43
2017-05-31T07:33:12.270Z,1010.45
2017-05-31T07:34:13.708Z,1010.47
2017-05-31T07:35:15.139Z,1010.44
2017-05-31T07:36:16.577Z,1010.46
2017-05-31T07:37:18.036Z,1010.51
2017-05-31T07:38:19.473Z,1010.50
2017-05-31T07:39:20.911Z,1010.53
2017-05-31T07:40:22.353Z,1010.52
2017-05-31T07:41:23.789Z,1010.53
2017-05-31T07:42:25.229Z,1010.53
2017-05-31T07:43:26.663Z,1010.54
2017-05-31T07:44:28.176Z,1010.54
2017-05-31T07:45:29.614Z,1010.50
2017-05-31T07:46:31.057Z,1010.48
2017-05-31T07:47:32.551Z,1010.47
2017-05-31T07:48:33.985Z,1010.49
2017-05-31T07:49:35.420Z,1010.47
2017-05-31T07:50:36.863Z,1010.48
2017-05-31T07:51:38.301Z,1010.48
2017-05-31T07:52:39.743Z,1010.47
2017-05-31T07:53:41.199Z,1010.47
2017-05-31T07:54:42.639Z,1010.48
2017-05-31T07:55:44.075Z,1010.46
2017-05-31T07:56:45.513Z,1010.48
2017-05-31T07:57:46.948Z,1010.46
2017-05-31T07:58:48.385Z,1010.44
2017-05-31T07:59:49.829Z,1010.45
2017-05-31T08:00:51.301Z,1010.48
2017-05-31T08:01:52.725Z,1010.45
2017-05-31T08:02:54.179Z,1010.49
2017-05-31T08:03:55.610Z,1010.47
2017-05-31T08:04:57.053Z,1010.47
2017-05-31T08:05:58.482Z,1010.45
2017-05-31T08:06:59.922Z,1010.43
2017-05-31T08:08:01.359Z,1010.41
2017-05-31T08:09:02.798Z,1010.43
2017-05-31T08:10:04.282Z,1010.45
2017-05-31T08:11:05.720Z,1010.43
2017-05-31T08:12:07.168Z,1010.42
2017-05-31T08:13:08.627Z,1010.41
2017-05-31T08:14:10.068Z,1010.42
2017-05-31T08:15:11.502Z,1010.44
2017-05-31T08:16:12.949Z,1010.47
2017-05-31T08:17:14.388Z,1010.49
2017-05-31T08:18:15.813Z,1010.45
2017-05-31T08:19:17.248Z,1010.41
2017-05-31T08:20:18.690Z,1010.44
2017-05-31T08:21:20.123Z,1010.47
2017-05-31T08:22:21.570Z,1010.41
2017-05-31T08:23:23.017Z,1010.41
2017-05-31T08:24:24.455Z,1010.40
2017-05-31T08:25:25.889Z,1010.43
2017-05-31T08:26:27.329Z,1010.39
2017-05-31T08:27:28.779Z,1010.45
2017-05-31T08:28:30.222Z,1010.40
2017-05-31T08:29:31.660Z,1010.43
2017-05-31T08:30:33.103Z,1010.44
2017-05-31T08:31:34.545Z,1010.45
2017-05-31T08:32:35.981Z,1010.47
2017-05-31T08:33:37.422Z,1010.46
2017-05-31T08:34:38.862Z,1010.52
2017-05-31T08:35:40.350Z,1010.49
2017-05-31T08:36:41.795Z,1010.50
2017-05-31T08:37:43.310Z,1010.46
2017-05-31T08:38:44.701Z,1010.45
2017-05-31T08:39:46.131Z,1010.40
2017-05-31T08:40:47.567Z,1010.41
2017-05-31T08:41:49.011Z,1010.43
2017-05-31T08:42:50.465Z,1010.45
2017-05-31T08:43:51.915Z,1010.43
2017-05-31T08:44:53.362Z,1010.47
2017-05-31T08:45:54.811Z,1010.45
2017-05-31T08:46:56.248Z,1010.47
2017-05-31T08:47:57.694Z,1010.48
2017-05-31T08:48:59.136Z,1010.50
2017-05-31T08:50:00.576Z,1010.50
2017-05-31T08:51:02.015Z,1010.50
2017-05-31T08:52:03.459Z,1010.54
2017-05-31T08:53:04.910Z,1010.51
2017-05-31T08:54:06.361Z,1010.48
2017-05-31T08:55:07.798Z,1010.52
2017-05-31T08:56:09.260Z,1010.51
2017-05-31T08:57:10.696Z,1010.47
2017-05-31T08:58:12.138Z,1010.47
2017-05-31T08:59:13.599Z,1010.46
2017-05-31T09:00:15.035Z,1010.48
2017-05-31T09:01:16.477Z,1010.47
2017-05-31T09:02:17.915Z,1010.49
2017-05-31T09:03:19.352Z,1010.49
2017-05-31T09:04:20.793Z,1010.49
2017-05-31T09:05:22.236Z,1010.54
2017-05-31T09:06:23.672Z,1010.53
2017-05-31T09:07:25.122Z,1010.52
2017-05-31T09:08:26.554Z,1010.51
2017-05-31T09:09:28.007Z,1010.49
2017-05-31T09:10:29.451Z,1010.48
2017-05-31T09:11:30.888Z,1010.47
2017-05-31T09:12:32.333Z,1010.50
2017-05-31T09:13:33.768Z,1010.49
2017-05-31T09:14:35.204Z,1010.50
2017-05-31T09:15:36.640Z,1010.53
2017-05-31T09:16:38.082Z,1010.54
2017-05-31T09:17:39.525Z,1010.54
2017-05-31T09:18:41.012Z,1010.53
2017-05-31T09:19:44.114Z,1010.54
2017-05-31T09:20:45.558Z,1010.53
2017-05-31T09:21:46.990Z,1010.60
2017-05-31T09:22:48.426Z,1010.60
2017-05-31T09:23:49.875Z,1010.64
2017-05-31T09:24:51.475Z,1010.63
2017-05-31T09:25:52.916Z,1010.63
2017-05-31T09:26:54.387Z,1010.61
2017-05-31T09:27:55.827Z,1010.65
2017-05-31T09:28:57.268Z,1010.63
2017-05-31T09:29:58.716Z,1010.64
2017-05-31T09:31:00.218Z,1010.63
2017-05-31T09:32:01.653Z,1010.64
2017-05-31T09:33:03.092Z,1010.63
2017-05-31T09:34:04.533Z,1010.65
2017-05-31T09:35:05.972Z,1010.66
2017-05-31T09:36:07.405Z,1010.66
2017-05-31T09:37:08.846Z,1010.68
2017-05-31T09:38:10.304Z,1010.66
2017-05-31T09:39:11.720Z,1010.69
2017-05-31T09:40:13.160Z,1010.69
2017-05-31T09:41:14.686Z,1010.70
2017-05-31T09:42:16.137Z,1010.71
2017-05-31T09:43:17.579Z,1010.70
2017-05-31T09:44:19.014Z,1010.66
2017-05-31T09:45:20.459Z,1010.67
2017-05-31T09:46:21.897Z,1010.70
2017-05-31T09:47:23.334Z,1010.64
2017-05-31T09:48:24.777Z,1010.64
2017-05-31T09:49:26.221Z,1010.66
2017-05-31T09:50:27.658Z,1010.65
2017-05-31T09:51:29.094Z,1010.66
2017-05-31T09:52:30.525Z,1010.63
2017-05-31T09:53:31.967Z,1010.66
2017-05-31T09:54:33.409Z,1010.70
2017-05-31T09:55:34.866Z,1010.68
2017-05-31T09:56:36.298Z,1010.71
2017-05-31T09:57:37.734Z,1010.68
2017-05-31T09:58:39.170Z,1010.72
2017-05-31T09:59:40.612Z,1010.74
2017-05-31T10:00:42.050Z,1010.73
2017-05-31T10:01:43.493Z,1010.75
2017-05-31T10:02:45.001Z,1010.68
2017-05-31T10:03:46.451Z,1010.67
2017-05-31T10:04:47.891Z,1010.64
2017-05-31T10:05:49.331Z,1010.63
2017-05-31T10:06:50.842Z,1010.62
2017-05-31T10:07:52.278Z,1010.64
2017-05-31T10:08:53.718Z,1010.59
2017-05-31T10:09:55.157Z,1010.60
2017-05-31T10:10:56.600Z,1010.58
2017-05-31T10:11:58.032Z,1010.55
2017-05-31T10:12:59.477Z,1010.56
2017-05-31T10:14:00.926Z,1010.58
2017-05-31T10:15:02.362Z,1010.60
2017-05-31T10:16:03.796Z,1010.59
2017-05-31T10:17:05.234Z,1010.59
2017-05-31T10:18:06.675Z,1010.60
2017-05-31T10:19:08.124Z,1010.57
2017-05-31T10:20:09.558Z,1010.55
2017-05-31T10:21:11.010Z,1010.56
2017-05-31T10:22:12.454Z,1010.58
2017-05-31T10:23:13.892Z,1010.59
2017-05-31T10:24:15.365Z,1010.58
2017-05-31T10:25:16.802Z,1010.53
2017-05-31T10:26:18.236Z,1010.57
2017-05-31T10:27:19.681Z,1010.57
2017-05-31T10:28:21.121Z,1010.55
2017-05-31T10:29:22.582Z,1010.53
2017-05-31T10:30:24.018Z,1010.54
2017-05-31T10:31:25.469Z,1010.56
2017-05-31T10:32:26.908Z,1010.56
2017-05-31T10:33:28.380Z,1010.53
2017-05-31T10:34:29.817Z,1010.52
2017-05-31T10:35:31.255Z,1010.53
2017-05-31T10:36:32.691Z,1010.48
2017-05-31T10:37:34.123Z,1010.45
2017-05-31T10:38:35.566Z,1010.47
2017-05-31T10:39:37.002Z,1010.42
2017-05-31T10:40:38.469Z,1010.47
2017-05-31T10:41:39.903Z,1010.47
2017-05-31T10:42:41.344Z,1010.50
2017-05-31T10:43:42.782Z,1010.48
2017-05-31T10:44:44.227Z,1010.49
2017-05-31T10:45:45.708Z,1010.50
2017-05-31T10:46:47.111Z,1010.43
2017-05-31T10:47:48.552Z,1010.47
2017-05-31T10:48:49.990Z,1010.43
2017-05-31T10:49:51.431Z,1010.41
2017-05-31T10:50:52.888Z,1010.39
2017-05-31T10:51:54.325Z,1010.41
2017-05-31T10:52:55.767Z,1010.40
2017-05-31T10:53:57.217Z,1010.45
2017-05-31T10:54:58.694Z,1010.45
2017-05-31T10:56:00.113Z,1010.44
2017-05-31T10:57:01.559Z,1010.43
2017-05-31T10:58:03.002Z,1010.43
2017-05-31T10:59:04.444Z,1010.43
2017-05-31T11:00:05.893Z,1010.46
2017-05-31T11:01:07.329Z,1010.45
2017-05-31T11:02:08.795Z,1010.48
2017-05-31T11:03:10.230Z,1010.44
2017-05-31T11:04:11.664Z,1010.47
2017-05-31T11:05:13.108Z,1010.47
2017-05-31T11:06:14.533Z,1010.47
2017-05-31T11:07:15.970Z,1010.47
2017-05-31T11:08:17.414Z,1010.50
2017-05-31T11:09:18.852Z,1010.46
2017-05-31T11:10:20.293Z,1010.41
2017-05-31T11:11:21.730Z,1010.42
2017-05-31T11:12:23.167Z,1010.42
2017-05-31T11:13:24.606Z,1010.41
2017-05-31T11:14:26.047Z,1010.41
2017-05-31T11:15:27.485Z,1010.37
2017-05-31T11:16:28.933Z,1010.40
2017-05-31T11:17:30.367Z,1010.41
2017-05-31T11:18:31.798Z,1010.41
2017-05-31T11:19:33.253Z,1010.36
2017-05-31T11:20:34.698Z,1010.44
2017-05-31T11:21:36.139Z,1010.44
2017-05-31T11:22:37.575Z,1010.47
2017-05-31T11:23:39.083Z,1010.46
2017-05-31T11:24:40.521Z,1010.53
2017-05-31T11:25:41.963Z,1010.49
2017-05-31T11:26:43.399Z,1010.45
2017-05-31T11:27:44.832Z,1010.44
2017-05-31T11:28:46.283Z,1010.41
2017-05-31T11:29:47.730Z,1010.42
2017-05-31T11:30:49.186Z,1010.40
2017-05-31T11:31:50.622Z,1010.38
2017-05-31T11:32:52.067Z,1010.36
2017-05-31T11:33:53.512Z,1010.40
2017-05-31T11:34:54.987Z,1010.45
2017-05-31T11:35:56.427Z,1010.39
2017-05-31T11:36:57.868Z,1010.43
2017-05-31T11:37:59.304Z,1010.38
2017-05-31T11:39:00.772Z,1010.38
2017-05-31T11:40:02.204Z,1010.36
2017-05-31T11:41:03.650Z,1010.38
2017-05-31T11:42:05.089Z,1010.34
2017-05-31T11:43:06.525Z,1010.37
2017-05-31T11:44:07.963Z,1010.34
2017-05-31T11:45:09.412Z,1010.33
2017-05-31T11:46:10.847Z,1010.32
2017-05-31T11:47:12.287Z,1010.32
2017-05-31T11:48:13.727Z,1010.27
2017-05-31T11:49:15.159Z,1010.23
2017-05-31T11:50:16.601Z,1010.24
2017-05-31T11:51:18.040Z,1010.26
2017-05-31T11:52:19.994Z,1010.25
2017-05-31T11:53:21.429Z,1010.23
2017-05-31T11:54:22.864Z,1010.26
2017-05-31T11:55:24.304Z,1010.21
2017-05-31T11:56:26.664Z,1010.18
2017-05-31T11:57:28.112Z,1010.17
2017-05-31T11:58:29.555Z,1010.11
2017-05-31T11:59:30.989Z,1010.12
2017-05-31T12:00:32.423Z,1010.11
2017-05-31T12:01:33.864Z,1010.10
2017-05-31T12:02:35.293Z,1010.05
2017-05-31T12:03:36.740Z,1010.02
2017-05-31T12:04:38.174Z,1010.10
2017-05-31T12:05:39.612Z,1010.06
2017-05-31T12:06:41.048Z,1010.06
2017-05-31T12:07:42.492Z,1010.02
2017-05-31T12:08:43.929Z,1010.02
2017-05-31T12:09:45.366Z,1010.01
2017-05-31T12:10:46.808Z,1010.06
2017-05-31T12:11:48.246Z,1010.03
2017-05-31T12:12:49.685Z,1010.02
2017-05-31T12:13:51.121Z,1009.98
2017-05-31T12:14:52.560Z,1009.95
2017-05-31T12:15:54.000Z,1009.93
2017-05-31T12:16:55.440Z,1009.99
2017-05-31T12:17:56.882Z,1009.95
2017-05-31T12:18:58.323Z,1009.93
2017-05-31T12:19:59.760Z,1009.97
2017-05-31T12:21:01.197Z,1009.93
2017-05-31T12:22:02.631Z,1009.89
2017-05-31T12:23:04.066Z,1009.89